Time;durP1;ratioP1;P1;durP2;ratioP2;P2;SDS_P1;SDS_P2;PMS_P1;PMS_P2;Temp;Humidity;BMP_temperature;BMP_pressure;BME280_temperature;BME280_humidity;BME280_pressure;Samples;Min_cycle;Max_cycle;Signal;HPM_P1;HPM_P2
2021/07/03 00:00:31;;;;;;;8.40;3.65;;;13.10;81.50;;;;;;5022758;28;20172;-75
2021/07/03 00:02:57;;;;;;;7.22;4.10;;;13.00;81.50;;;;;;5027112;28;20041;-74
2021/07/03 00:05:23;;;;;;;6.07;3.58;;;12.90;82.00;;;;;;5019223;28;20062;-75
2021/07/03 00:07:49;;;;;;;5.60;3.40;;;12.80;81.80;;;;;;5026959;28;20083;-74
2021/07/03 00:10:15;;;;;;;5.32;3.42;;;12.90;81.40;;;;;;5027177;28;20025;-75
2021/07/03 00:12:41;;;;;;;7.20;3.92;;;12.90;80.90;;;;;;5024693;28;20030;-74
2021/07/03 00:15:12;;;;;;;4.88;3.30;;;12.90;80.90;;;;;;5028484;28;20108;-75
2021/07/03 00:17:38;;;;;;;8.77;3.90;;;12.90;80.80;;;;;;5021514;28;20497;-74
2021/07/03 00:20:09;;;;;;;8.00;3.58;;;12.90;81.00;;;;;;5027223;28;20058;-75
2021/07/03 00:22:35;;;;;;;5.90;3.30;;;12.80;81.30;;;;;;5022808;28;20045;-74
2021/07/03 00:25:03;;;;;;;5.00;3.13;;;12.80;81.00;;;;;;5024002;28;20598;-74
2021/07/03 00:27:28;;;;;;;5.20;3.42;;;12.90;80.60;;;;;;5025764;28;20032;-74
2021/07/03 00:29:54;;;;;;;4.70;3.47;;;12.80;80.60;;;;;;5020260;28;20032;-74
2021/07/03 00:32:20;;;;;;;6.72;3.63;;;12.80;80.50;;;;;;5026474;28;20038;-74
2021/07/03 00:34:45;;;;;;;5.63;3.45;;;12.80;80.90;;;;;;5030507;28;20966;-75
2021/07/03 00:37:11;;;;;;;4.75;3.42;;;12.70;81.60;;;;;;5026154;28;20034;-75
2021/07/03 00:39:37;;;;;;;5.40;3.38;;;12.60;81.50;;;;;;5027092;28;20034;-75
2021/07/03 00:42:03;;;;;;;6.80;3.50;;;12.60;81.30;;;;;;5028400;28;20033;-75
2021/07/03 00:44:31;;;;;;;4.35;3.20;;;12.60;80.90;;;;;;5018032;28;20594;-75
2021/07/03 00:46:59;;;;;;;6.85;3.75;;;12.60;81.00;;;;;;5026724;28;20073;-75
2021/07/03 00:49:24;;;;;;;6.95;3.63;;;12.70;81.30;;;;;;5029660;28;20029;-75
2021/07/03 00:51:51;;;;;;;5.00;3.60;;;12.60;81.30;;;;;;5022379;28;20687;-75
2021/07/03 00:54:17;;;;;;;4.95;2.95;;;12.60;81.20;;;;;;5027023;28;20025;-74
2021/07/03 00:56:42;;;;;;;5.60;3.40;;;12.60;81.40;;;;;;5018881;28;20036;-75
2021/07/03 00:59:08;;;;;;;6.60;3.30;;;12.60;81.60;;;;;;5022426;28;20105;-74
2021/07/03 01:01:34;;;;;;;6.13;3.97;;;12.60;81.50;;;;;;5026919;28;20125;-74
2021/07/03 01:03:59;;;;;;;7.63;3.33;;;12.60;82.20;;;;;;5024376;28;20071;-74
2021/07/03 01:06:25;;;;;;;9.02;2.95;;;12.50;81.20;;;;;;5029224;28;20818;-75
2021/07/03 01:08:51;;;;;;;6.75;3.40;;;12.60;81.20;;;;;;5019066;28;20045;-74
2021/07/03 01:11:27;;;;;;;5.15;3.50;;;12.50;81.30;;;;;;5028455;28;20049;-73
2021/07/03 01:13:53;;;;;;;6.00;3.17;;;12.40;81.70;;;;;;5027476;28;20029;-73
2021/07/03 01:16:19;;;;;;;5.88;4.05;;;12.30;82.00;;;;;;5026176;28;20550;-74
2021/07/03 01:18:45;;;;;;;9.13;3.50;;;12.20;82.20;;;;;;5015238;28;20037;-74
2021/07/03 01:21:15;;;;;;;5.75;3.28;;;12.20;81.90;;;;;;5027105;28;20059;-75
2021/07/03 01:23:41;;;;;;;14.88;3.92;;;12.30;81.90;;;;;;5026026;28;20021;-74
2021/07/03 01:26:07;;;;;;;6.15;3.55;;;12.30;81.60;;;;;;5030708;28;20068;-74
2021/07/03 01:28:33;;;;;;;5.22;3.45;;;12.20;82.00;;;;;;5022373;28;20069;-73
2021/07/03 01:30:59;;;;;;;8.02;3.13;;;12.00;83.30;;;;;;5025902;28;20116;-74
2021/07/03 01:33:25;;;;;;;5.43;3.33;;;12.00;82.90;;;;;;5024452;28;20108;-74
2021/07/03 01:35:51;;;;;;;5.53;3.40;;;12.10;82.50;;;;;;5023598;28;20030;-74
2021/07/03 01:38:22;;;;;;;4.45;3.22;;;12.10;82.50;;;;;;5031774;28;20040;-74
2021/07/03 01:40:48;;;;;;;4.95;3.60;;;12.10;82.40;;;;;;5016055;28;20030;-74
2021/07/03 01:43:27;;;;;;;6.90;3.22;;;12.10;82.20;;;;;;5025197;28;20056;-74
2021/07/03 01:45:54;;;;;;;5.57;3.03;;;12.10;81.90;;;;;;5023095;28;20083;-75
2021/07/03 01:48:28;;;;;;;6.00;3.05;;;12.00;82.10;;;;;;5012593;28;20044;-74
2021/07/03 01:50:55;;;;;;;6.10;3.58;;;12.00;82.00;;;;;;5019385;28;20516;-74
2021/07/03 01:53:21;;;;;;;6.68;3.42;;;12.00;82.10;;;;;;5026709;28;20036;-74
2021/07/03 01:55:48;;;;;;;4.68;2.90;;;11.90;82.40;;;;;;5021366;28;20686;-75
2021/07/03 01:58:22;;;;;;;5.68;3.78;;;11.90;82.40;;;;;;5020798;28;20033;-74
2021/07/03 02:00:49;;;;;;;4.90;3.28;;;11.80;82.60;;;;;;5023208;28;20044;-74
2021/07/03 02:03:15;;;;;;;6.50;3.60;;;11.80;82.60;;;;;;5037692;28;20030;-75
2021/07/03 02:05:42;;;;;;;4.97;3.22;;;11.80;82.60;;;;;;5015859;28;20054;-74
2021/07/03 02:08:08;;;;;;;6.72;3.38;;;11.60;83.60;;;;;;5037610;28;20038;-75
2021/07/03 02:10:34;;;;;;;5.38;3.08;;;11.50;84.30;;;;;;5028463;28;20033;-74
2021/07/03 02:13:00;;;;;;;4.75;3.20;;;11.40;85.10;;;;;;5024466;28;20017;-74
2021/07/03 02:15:25;;;;;;;6.70;3.42;;;11.40;85.40;;;;;;5021205;28;20504;-75
2021/07/03 02:17:51;;;;;;;7.40;3.58;;;11.40;85.00;;;;;;5021627;28;20044;-75
2021/07/03 02:20:17;;;;;;;7.22;3.60;;;11.40;85.40;;;;;;5022450;28;20030;-74
2021/07/03 02:22:43;;;;;;;5.88;3.38;;;11.30;85.50;;;;;;5018306;28;20094;-74
2021/07/03 02:25:09;;;;;;;5.68;3.55;;;11.20;85.30;;;;;;5025067;28;20036;-74
2021/07/03 02:27:35;;;;;;;6.55;3.53;;;11.20;85.90;;;;;;5024093;28;20017;-74
2021/07/03 02:30:02;;;;;;;7.00;3.25;;;11.20;86.20;;;;;;5030522;28;20495;-74
2021/07/03 02:32:28;;;;;;;9.63;3.70;;;11.20;86.30;;;;;;5017813;28;20034;-74
2021/07/03 02:34:53;;;;;;;5.32;3.50;;;11.20;86.60;;;;;;5015644;28;20025;-75
2021/07/03 02:37:19;;;;;;;6.50;3.75;;;11.20;85.90;;;;;;5023641;28;20052;-75
2021/07/03 02:39:45;;;;;;;8.85;3.22;;;11.10;85.70;;;;;;5020997;28;20384;-75
2021/07/03 02:42:10;;;;;;;5.25;3.28;;;11.00;86.40;;;;;;5021866;28;20512;-74
2021/07/03 02:44:36;;;;;;;5.47;3.42;;;11.00;86.30;;;;;;5017687;28;20550;-74
2021/07/03 02:47:02;;;;;;;6.13;3.15;;;10.90;86.90;;;;;;5023517;28;20428;-74
2021/07/03 02:49:28;;;;;;;8.48;3.65;;;11.00;86.40;;;;;;5026390;28;20033;-75
2021/07/03 02:51:56;;;;;;;4.78;3.00;;;11.10;85.90;;;;;;5015357;28;20116;-75
2021/07/03 02:54:22;;;;;;;4.25;3.10;;;11.20;85.60;;;;;;5023374;28;20025;-74
2021/07/03 02:56:47;;;;;;;6.55;3.33;;;11.10;84.00;;;;;;5022280;28;20551;-75
2021/07/03 02:59:13;;;;;;;7.20;2.95;;;11.20;84.30;;;;;;5022308;28;20021;-74
2021/07/03 03:01:39;;;;;;;4.07;3.13;;;11.10;83.40;;;;;;5020861;28;20034;-74
2021/07/03 03:04:05;;;;;;;7.32;3.47;;;11.10;83.60;;;;;;5021273;28;20592;-74
2021/07/03 03:06:30;;;;;;;5.90;3.83;;;11.00;84.70;;;;;;5020046;28;21577;-74
2021/07/03 03:08:56;;;;;;;4.72;3.33;;;10.90;85.30;;;;;;5022402;28;20037;-74
2021/07/03 03:11:22;;;;;;;5.35;3.60;;;10.80;85.40;;;;;;5019079;28;20060;-74
2021/07/03 03:13:47;;;;;;;5.53;3.50;;;10.80;85.90;;;;;;5023496;28;20030;-74
2021/07/03 03:16:13;;;;;;;6.55;3.65;;;10.70;87.20;;;;;;5020063;28;20056;-74
2021/07/03 03:18:39;;;;;;;6.20;3.85;;;10.70;87.20;;;;;;5014661;28;20025;-75
2021/07/03 03:21:04;;;;;;;6.63;4.22;;;10.60;88.20;;;;;;5024570;28;20566;-74
2021/07/03 03:23:30;;;;;;;9.10;3.85;;;10.60;87.50;;;;;;5025017;28;20076;-74
2021/07/03 03:25:56;;;;;;;9.27;3.60;;;10.70;87.60;;;;;;5016645;28;20021;-74
2021/07/03 03:28:22;;;;;;;7.03;3.60;;;10.70;87.50;;;;;;5021544;28;20404;-74
2021/07/03 03:30:47;;;;;;;7.00;3.25;;;10.60;88.10;;;;;;5019559;28;20109;-74
2021/07/03 03:33:13;;;;;;;5.18;3.40;;;10.60;87.90;;;;;;5025599;28;20112;-74
2021/07/03 03:35:39;;;;;;;6.38;3.53;;;10.60;88.00;;;;;;5025102;28;20034;-74
2021/07/03 03:38:04;;;;;;;5.60;3.60;;;10.60;88.20;;;;;;5017029;28;20385;-75
2021/07/03 03:40:30;;;;;;;6.57;3.85;;;10.80;87.10;;;;;;5015410;28;20112;-73
2021/07/03 03:42:56;;;;;;;5.10;3.53;;;10.90;86.30;;;;;;5019225;28;20056;-74
2021/07/03 03:45:23;;;;;;;5.57;3.60;;;11.00;86.00;;;;;;5026546;28;20487;-75
2021/07/03 03:47:48;;;;;;;6.53;3.20;;;11.10;85.40;;;;;;5020653;28;20029;-74
2021/07/03 03:50:14;;;;;;;4.93;3.38;;;11.10;84.60;;;;;;5019487;28;20389;-74
2021/07/03 03:52:40;;;;;;;4.65;3.45;;;11.20;84.90;;;;;;5021491;28;20415;-74
2021/07/03 03:55:07;;;;;;;8.57;3.47;;;11.20;86.60;;;;;;5021023;28;20060;-74
2021/07/03 03:57:33;;;;;;;5.32;3.65;;;11.20;86.10;;;;;;5019322;28;20044;-74
2021/07/03 03:59:59;;;;;;;5.05;3.03;;;11.30;85.50;;;;;;5022364;28;20033;-74
2021/07/03 04:02:26;;;;;;;5.00;3.47;;;11.50;84.90;;;;;;5023703;28;20122;-73
2021/07/03 04:04:52;;;;;;;5.47;3.20;;;11.60;85.00;;;;;;5015678;28;20053;-74
2021/07/03 04:07:22;;;;;;;5.30;2.70;;;11.60;83.40;;;;;;5024685;28;20361;-74
2021/07/03 04:09:48;;;;;;;4.40;2.75;;;11.60;83.20;;;;;;5023508;28;20105;-74
2021/07/03 04:12:15;;;;;;;3.40;2.65;;;11.70;83.20;;;;;;5026983;28;20022;-74
2021/07/03 04:14:41;;;;;;;8.95;2.60;;;11.80;82.70;;;;;;5021193;28;20790;-74
2021/07/03 04:17:07;;;;;;;4.18;2.90;;;11.70;83.30;;;;;;5023755;28;20079;-74
2021/07/03 04:19:33;;;;;;;4.35;2.90;;;11.70;83.40;;;;;;5020884;28;20033;-75
2021/07/03 04:21:59;;;;;;;3.88;3.13;;;11.60;83.70;;;;;;5029096;28;20029;-75
2021/07/03 04:24:26;;;;;;;3.30;2.67;;;11.80;83.80;;;;;;5018592;28;20075;-74
2021/07/03 04:26:52;;;;;;;4.70;3.10;;;11.90;83.50;;;;;;5023438;28;20519;-74
2021/07/03 04:29:18;;;;;;;4.05;2.72;;;11.90;83.40;;;;;;5017481;28;20036;-74
2021/07/03 04:31:44;;;;;;;4.88;2.50;;;12.00;83.40;;;;;;5024385;28;20045;-74
2021/07/03 04:34:10;;;;;;;4.55;2.58;;;12.00;83.60;;;;;;5025901;28;20021;-74
2021/07/03 04:36:36;;;;;;;4.15;3.05;;;12.00;83.30;;;;;;5021353;28;20370;-74
2021/07/03 04:39:02;;;;;;;4.05;2.88;;;12.00;83.10;;;;;;5029682;28;20025;-74
2021/07/03 04:41:28;;;;;;;3.95;2.60;;;12.00;83.20;;;;;;5026631;28;20488;-74
2021/07/03 04:43:54;;;;;;;3.47;2.80;;;12.00;83.30;;;;;;5028633;28;20041;-74
2021/07/03 04:46:20;;;;;;;3.22;2.40;;;12.00;83.60;;;;;;5018388;28;20026;-74
2021/07/03 04:48:46;;;;;;;3.75;2.85;;;12.00;83.60;;;;;;5028458;28;20033;-74
2021/07/03 04:51:11;;;;;;;3.13;2.63;;;11.90;83.60;;;;;;5021849;28;20028;-74
2021/07/03 04:53:37;;;;;;;3.22;2.70;;;12.00;83.90;;;;;;5027645;28;20053;-74
2021/07/03 04:56:03;;;;;;;4.65;3.17;;;12.00;83.90;;;;;;5020840;28;20040;-75
2021/07/03 04:58:29;;;;;;;5.80;2.90;;;12.00;84.10;;;;;;5023229;28;20120;-74
2021/07/03 05:00:54;;;;;;;5.00;2.75;;;12.10;85.10;;;;;;5019971;28;20037;-75
2021/07/03 05:03:20;;;;;;;3.90;2.78;;;12.30;86.10;;;;;;5023811;28;20392;-75
2021/07/03 05:05:46;;;;;;;4.07;3.10;;;12.40;85.60;;;;;;5022066;28;20032;-75
2021/07/03 05:08:11;;;;;;;5.47;3.40;;;12.60;85.30;;;;;;5020926;28;20113;-74
2021/07/03 05:10:37;;;;;;;3.95;2.78;;;12.70;84.70;;;;;;5023332;28;20037;-75
2021/07/03 05:13:02;;;;;;;4.13;2.92;;;12.80;84.00;;;;;;5020301;28;20033;-75
2021/07/03 05:15:28;;;;;;;5.18;3.30;;;12.90;83.70;;;;;;5027454;28;20056;-75
2021/07/03 05:17:54;;;;;;;5.95;3.35;;;13.00;83.20;;;;;;5020637;28;20037;-74
2021/07/03 05:20:20;;;;;;;5.32;3.70;;;13.00;83.90;;;;;;5028663;28;20373;-75
2021/07/03 05:22:45;;;;;;;4.32;3.30;;;13.00;83.50;;;;;;5022092;28;20057;-74
2021/07/03 05:25:12;;;;;;;5.13;3.40;;;13.10;83.80;;;;;;5025009;28;20029;-74
2021/07/03 05:27:38;;;;;;;5.18;3.55;;;13.30;83.40;;;;;;5022936;28;20030;-75
2021/07/03 05:30:04;;;;;;;8.90;3.63;;;13.40;83.20;;;;;;5023458;28;20087;-74
2021/07/03 05:32:30;;;;;;;6.95;4.13;;;13.50;82.50;;;;;;5026828;28;20050;-74
2021/07/03 05:34:56;;;;;;;11.35;4.78;;;13.70;81.80;;;;;;5021768;28;20514;-74
2021/07/03 05:37:22;;;;;;;8.70;4.45;;;13.80;81.20;;;;;;5021992;28;20034;-74
2021/07/03 05:39:48;;;;;;;5.75;4.03;;;13.80;80.80;;;;;;5025121;28;20415;-74
2021/07/03 05:42:13;;;;;;;5.20;3.78;;;13.90;80.50;;;;;;5022749;28;20496;-75
2021/07/03 05:44:39;;;;;;;5.85;3.38;;;14.00;80.50;;;;;;5026909;28;20041;-74
2021/07/03 05:47:05;;;;;;;6.03;4.07;;;14.10;80.80;;;;;;5022949;28;20028;-75
2021/07/03 05:49:30;;;;;;;4.85;3.80;;;14.20;81.10;;;;;;5023743;28;20075;-75
2021/07/03 05:51:56;;;;;;;4.50;3.42;;;14.30;81.00;;;;;;5020596;28;21674;-74
2021/07/03 05:54:22;;;;;;;6.35;4.03;;;14.50;82.10;;;;;;5018121;28;20111;-73
2021/07/03 05:56:49;;;;;;;5.30;3.85;;;14.50;81.90;;;;;;5023603;28;20485;-75
2021/07/03 05:59:16;;;;;;;7.05;4.15;;;14.60;81.30;;;;;;5018519;28;20032;-74
2021/07/03 06:01:43;;;;;;;6.18;3.97;;;14.70;82.40;;;;;;5019766;28;20152;-75
2021/07/03 06:04:09;;;;;;;7.88;4.63;;;14.70;83.00;;;;;;5040376;28;20021;-74
2021/07/03 06:06:34;;;;;;;6.13;3.83;;;14.80;81.10;;;;;;5023657;28;20035;-74
2021/07/03 06:09:00;;;;;;;6.07;4.60;;;14.80;80.70;;;;;;5030222;28;20021;-74
2021/07/03 06:11:26;;;;;;;6.30;4.10;;;14.90;81.30;;;;;;5022625;28;20695;-73
2021/07/03 06:13:54;;;;;;;6.32;4.20;;;15.00;79.30;;;;;;5017113;28;20025;-74
2021/07/03 06:16:20;;;;;;;6.60;4.57;;;15.10;80.30;;;;;;5020179;28;20029;-74
2021/07/03 06:18:45;;;;;;;7.75;4.68;;;15.30;80.80;;;;;;5019449;28;20056;-74
2021/07/03 06:21:11;;;;;;;6.00;3.90;;;15.40;80.40;;;;;;5020765;28;20057;-74
2021/07/03 06:23:37;;;;;;;7.68;3.65;;;15.50;80.30;;;;;;5019986;28;20029;-75
2021/07/03 06:26:03;;;;;;;6.38;4.38;;;15.70;80.50;;;;;;5026226;28;20454;-74
2021/07/03 06:28:31;;;;;;;6.28;4.25;;;15.80;81.00;;;;;;5020195;28;20033;-74
2021/07/03 06:30:57;;;;;;;6.78;4.38;;;15.90;80.60;;;;;;5016353;28;20174;-74
2021/07/03 06:33:23;;;;;;;8.82;4.30;;;16.10;80.30;;;;;;5027503;28;20022;-74
2021/07/03 06:35:50;;;;;;;7.75;4.20;;;16.20;80.60;;;;;;5015015;28;20025;-73
2021/07/03 06:38:16;;;;;;;8.75;4.40;;;16.30;80.30;;;;;;5018307;28;20029;-74
2021/07/03 06:40:42;;;;;;;8.25;4.60;;;16.40;79.60;;;;;;5025777;28;20096;-75
2021/07/03 06:43:08;;;;;;;8.57;4.88;;;16.60;80.00;;;;;;5025111;28;20067;-74
2021/07/03 06:45:34;;;;;;;7.95;4.47;;;16.70;78.50;;;;;;5045602;28;20467;-75
2021/07/03 06:48:00;;;;;;;7.47;4.80;;;16.70;80.80;;;;;;5018516;28;20040;-73
2021/07/03 06:50:25;;;;;;;6.68;4.75;;;16.80;77.60;;;;;;5024738;28;20424;-74
2021/07/03 06:52:51;;;;;;;8.23;5.13;;;17.00;77.80;;;;;;5026472;28;20040;-74
2021/07/03 06:55:17;;;;;;;7.63;5.05;;;17.10;78.40;;;;;;5023289;28;20025;-74
2021/07/03 06:57:43;;;;;;;8.07;4.40;;;17.20;78.80;;;;;;5035516;28;20030;-74
2021/07/03 07:00:10;;;;;;;7.72;4.72;;;17.30;77.80;;;;;;5032325;28;20573;-74
2021/07/03 07:02:36;;;;;;;6.30;4.18;;;17.50;77.70;;;;;;5014198;28;20415;-74
2021/07/03 07:05:02;;;;;;;6.72;4.32;;;17.60;77.40;;;;;;5020141;28;20026;-75
2021/07/03 07:07:28;;;;;;;7.95;4.82;;;17.80;78.60;;;;;;5025658;28;20498;-74
2021/07/03 07:09:53;;;;;;;9.93;4.53;;;17.90;77.20;;;;;;5026432;28;20114;-75
2021/07/03 07:12:19;;;;;;;6.90;4.75;;;18.00;76.20;;;;;;5024151;28;20108;-75
2021/07/03 07:14:45;;;;;;;7.03;4.20;;;18.10;76.10;;;;;;5026589;28;20488;-74
2021/07/03 07:17:11;;;;;;;6.03;4.18;;;18.20;75.20;;;;;;5039667;28;20572;-74
2021/07/03 07:19:37;;;;;;;6.63;4.38;;;18.30;74.60;;;;;;5026027;28;20021;-74
2021/07/03 07:22:03;;;;;;;7.18;4.35;;;18.40;74.70;;;;;;5030251;28;20025;-74
2021/07/03 07:24:29;;;;;;;6.57;4.15;;;18.50;77.80;;;;;;5023823;28;20033;-75
2021/07/03 07:26:55;;;;;;;6.28;4.22;;;18.70;75.60;;;;;;5025624;28;20107;-74
2021/07/03 07:29:21;;;;;;;7.57;4.72;;;18.80;71.10;;;;;;5023071;28;20393;-73
2021/07/03 07:31:49;;;;;;;5.00;3.63;;;18.90;72.80;;;;;;5028188;28;20087;-73
2021/07/03 07:34:15;;;;;;;6.18;3.47;;;18.80;65.30;;;;;;5035554;28;20029;-75
2021/07/03 07:36:40;;;;;;;6.45;3.90;;;18.90;66.10;;;;;;5045774;28;20104;-73
2021/07/03 07:39:06;;;;;;;5.97;3.78;;;19.00;65.20;;;;;;5041988;28;20496;-75
2021/07/03 07:41:32;;;;;;;5.68;3.83;;;19.20;62.00;;;;;;5036395;28;20018;-75
2021/07/03 07:43:58;;;;;;;5.47;4.05;;;19.20;65.80;;;;;;5046092;28;20055;-75
2021/07/03 07:46:23;;;;;;;6.13;4.07;;;19.30;65.20;;;;;;5040377;28;20061;-75
2021/07/03 07:48:49;;;;;;;9.57;3.90;;;19.40;62.10;;;;;;5043215;28;20041;-75
2021/07/03 07:51:17;;;;;;;5.60;4.10;;;19.30;62.90;;;;;;5038995;28;20025;-75
2021/07/03 07:53:43;;;;;;;4.53;3.47;;;19.40;61.80;;;;;;5042483;28;20103;-75
2021/07/03 07:56:09;;;;;;;4.15;3.40;;;19.60;62.80;;;;;;5041671;28;20120;-75
2021/07/03 07:58:35;;;;;;;5.10;3.70;;;19.60;64.30;;;;;;5036030;28;20037;-75
2021/07/03 08:01:17;;;;;;;5.80;3.83;;;19.80;64.40;;;;;;5029764;28;20072;-75
2021/07/03 08:03:43;;;;;;;9.50;4.15;;;19.90;63.40;;;;;;5025100;28;20034;-74
2021/07/03 08:06:10;;;;;;;7.35;3.95;;;19.80;63.10;;;;;;5024319;28;20041;-75
2021/07/03 08:08:36;;;;;;;7.43;4.40;;;19.80;61.90;;;;;;5022933;28;20040;-75
2021/07/03 08:11:02;;;;;;;5.35;4.15;;;19.90;63.10;;;;;;5026865;28;20029;-75
2021/07/03 08:13:31;;;;;;;5.50;4.10;;;20.00;62.00;;;;;;5022973;28;20091;-75
2021/07/03 08:15:56;;;;;;;5.97;3.95;;;20.10;62.00;;;;;;5026578;28;20086;-75
2021/07/03 08:18:23;;;;;;;6.72;4.20;;;20.10;61.00;;;;;;5026080;28;20030;-75
2021/07/03 08:20:50;;;;;;;7.20;4.30;;;20.20;61.90;;;;;;5018454;28;20060;-75
2021/07/03 08:23:16;;;;;;;5.20;4.68;;;20.20;60.60;;;;;;5026744;28;20565;-75
2021/07/03 08:25:42;;;;;;;8.80;4.10;;;20.30;61.70;;;;;;5025650;28;20048;-75
2021/07/03 08:28:08;;;;;;;5.32;3.92;;;20.50;61.00;;;;;;5025611;28;20025;-75
2021/07/03 08:30:34;;;;;;;7.90;3.72;;;20.50;58.40;;;;;;5015721;28;20017;-75
2021/07/03 08:33:01;;;;;;;6.32;3.95;;;20.50;59.00;;;;;;5032963;28;20096;-75
2021/07/03 08:35:26;;;;;;;5.15;3.97;;;20.50;60.80;;;;;;5029287;28;20068;-75
2021/07/03 08:37:52;;;;;;;5.88;4.10;;;20.60;57.60;;;;;;5023262;28;20057;-75
2021/07/03 08:40:18;;;;;;;5.55;3.53;;;20.50;56.00;;;;;;5020192;28;20026;-75
2021/07/03 08:42:45;;;;;;;6.35;3.60;;;20.50;57.60;;;;;;5031473;28;20038;-75
2021/07/03 08:45:12;;;;;;;5.05;3.80;;;20.70;59.70;;;;;;5028542;28;20396;-75
2021/07/03 08:47:42;;;;;;;5.50;3.75;;;20.70;56.30;;;;;;5021375;28;20025;-75
2021/07/03 08:50:11;;;;;;;4.63;3.50;;;20.70;57.70;;;;;;5027669;28;20013;-75
2021/07/03 08:52:36;;;;;;;5.03;3.50;;;20.80;55.00;;;;;;5031033;28;20530;-75
2021/07/03 08:55:05;;;;;;;8.57;3.70;;;20.80;56.40;;;;;;5029747;28;20064;-75
2021/07/03 08:57:31;;;;;;;4.63;3.40;;;20.80;57.30;;;;;;5024362;28;20029;-76
2021/07/03 08:59:58;;;;;;;5.03;3.45;;;21.00;55.20;;;;;;5036998;28;20037;-75
2021/07/03 09:02:33;;;;;;;4.18;3.10;;;21.10;54.10;;;;;;5031774;28;20034;-75
2021/07/03 09:05:00;;;;;;;5.50;3.60;;;21.20;57.10;;;;;;5030402;28;20030;-75
2021/07/03 09:07:32;;;;;;;4.93;3.50;;;21.10;54.40;;;;;;5027572;28;20030;-75
2021/07/03 09:09:58;;;;;;;5.60;3.58;;;21.10;54.70;;;;;;5028909;28;20095;-75
2021/07/03 09:12:31;;;;;;;6.45;3.30;;;21.10;53.20;;;;;;5029880;28;20061;-75
2021/07/03 09:15:07;;;;;;;4.28;3.70;;;21.20;54.60;;;;;;5030341;28;20032;-75
2021/07/03 09:17:43;;;;;;;5.68;3.70;;;21.40;56.80;;;;;;5029124;28;20044;-75
2021/07/03 09:20:09;;;;;;;5.70;3.70;;;21.60;57.10;;;;;;5037767;28;20033;-75
2021/07/03 09:22:35;;;;;;;4.70;3.50;;;21.50;54.30;;;;;;5027603;28;20025;-74
2021/07/03 09:25:39;;;;;;;5.05;3.65;;;21.30;56.40;;;;;;5033324;28;20044;-72
2021/07/03 09:28:19;;;;;;;7.15;3.65;;;21.40;55.20;;;;;;5016508;28;20049;-74
2021/07/03 09:30:50;;;;;;;5.40;3.70;;;21.70;54.80;;;;;;5027976;28;20041;-75
2021/07/03 09:33:21;;;;;;;6.55;3.60;;;21.90;52.00;;;;;;5026632;28;20049;-75
2021/07/03 09:36:06;;;;;;;4.75;3.67;;;22.00;56.10;;;;;;5023235;28;20025;-75
2021/07/03 09:38:33;;;;;;;4.20;3.60;;;22.20;55.60;;;;;;5018061;28;20057;-74
2021/07/03 09:41:13;;;;;;;5.20;3.95;;;22.30;55.20;;;;;;5023652;28;20025;-74
2021/07/03 09:43:51;;;;;;;4.30;3.55;;;22.50;55.00;;;;;;5034291;28;20037;-74
2021/07/03 09:46:34;;;;;;;4.22;3.25;;;22.70;54.90;;;;;;5025768;28;20030;-74
2021/07/03 09:49:14;;;;;;;5.43;3.85;;;22.60;53.30;;;;;;5031958;28;20180;-75
2021/07/03 09:51:43;;;;;;;5.55;3.50;;;22.70;54.40;;;;;;5032349;28;20058;-75
2021/07/03 09:54:11;;;;;;;8.88;3.60;;;22.70;53.80;;;;;;5027964;28;20026;-74
2021/07/03 09:56:41;;;;;;;5.40;3.42;;;22.80;52.60;;;;;;5026099;28;20040;-74
2021/07/03 09:59:08;;;;;;;6.70;3.90;;;22.80;50.20;;;;;;5032133;28;20033;-74
2021/07/03 10:01:38;;;;;;;5.72;3.80;;;22.70;49.80;;;;;;5024478;28;20641;-75
2021/07/03 10:04:04;;;;;;;5.63;3.50;;;22.60;48.20;;;;;;5022160;28;20051;-74
2021/07/03 10:06:41;;;;;;;3.95;3.47;;;22.70;52.20;;;;;;5027791;28;20033;-73
2021/07/03 10:09:11;;;;;;;10.33;3.70;;;22.70;48.50;;;;;;5026572;28;20032;-74
2021/07/03 10:11:49;;;;;;;5.07;3.50;;;22.80;51.70;;;;;;5022542;28;20021;-74
2021/07/03 10:14:15;;;;;;;16.85;4.13;;;22.90;52.70;;;;;;5024700;28;20100;-74
2021/07/03 10:16:41;;;;;;;4.47;3.33;;;22.90;51.50;;;;;;5026291;28;20030;-75
2021/07/03 10:19:13;;;;;;;5.38;3.33;;;22.70;50.60;;;;;;5026484;28;20056;-76
2021/07/03 10:21:40;;;;;;;5.70;3.35;;;22.80;52.90;;;;;;5020835;28;20036;-74
2021/07/03 10:24:21;;;;;;;5.53;3.40;;;22.80;48.10;;;;;;5025694;28;20112;-74
2021/07/03 10:26:48;;;;;;;4.47;3.28;;;22.90;48.00;;;;;;5025894;28;20104;-74
2021/07/03 10:29:21;;;;;;;4.47;3.63;;;22.80;47.50;;;;;;5023085;28;20033;-76
2021/07/03 10:31:49;;;;;;;5.03;3.00;;;22.90;49.10;;;;;;5022139;28;20040;-74
2021/07/03 10:34:15;;;;;;;5.22;3.22;;;23.00;47.40;;;;;;5025283;28;20032;-74
2021/07/03 10:36:42;;;;;;;5.85;3.20;;;23.00;46.40;;;;;;5018913;28;20030;-74
2021/07/03 10:39:08;;;;;;;4.30;3.00;;;23.10;53.20;;;;;;5020351;28;20212;-75
2021/07/03 10:41:36;;;;;;;3.88;2.83;;;23.20;47.50;;;;;;5020894;28;20136;-75
2021/07/03 10:44:11;;;;;;;;;;;23.30;50.00;;;;;;5022233;28;20395;-75
2021/07/03 10:46:42;;;;;;;3.80;2.90;;;23.40;48.60;;;;;;5018907;28;19915;-75
2021/07/03 10:49:14;;;;;;;3.80;3.08;;;23.50;49.50;;;;;;5025993;28;20025;-73
2021/07/03 10:51:44;;;;;;;22.95;4.10;;;23.50;47.70;;;;;;5022832;28;20033;-73
2021/07/03 10:54:24;;;;;;;6.05;3.70;;;23.60;49.00;;;;;;5020392;28;20472;-73
2021/07/03 10:57:15;;;;;;;4.10;3.20;;;23.50;46.10;;;;;;5039346;28;20065;-73
2021/07/03 10:59:42;;;;;;;4.57;3.05;;;23.50;47.20;;;;;;5022464;28;20028;-73
2021/07/03 11:02:14;;;;;;;4.65;3.17;;;23.40;45.30;;;;;;5019547;28;20076;-74
2021/07/03 11:04:53;;;;;;;4.32;2.83;;;23.40;46.70;;;;;;5026164;28;20165;-73
2021/07/03 11:07:29;;;;;;;3.90;3.13;;;23.40;50.60;;;;;;5022472;28;20049;-74
2021/07/03 11:10:04;;;;;;;5.60;3.50;;;23.40;46.40;;;;;;5022177;28;20393;-74
2021/07/03 11:12:30;;;;;;;5.00;3.10;;;23.50;47.20;;;;;;5023055;28;20021;-74
2021/07/03 11:14:58;;;;;;;39.33;7.05;;;23.70;43.80;;;;;;5019354;28;20121;-74
2021/07/03 11:17:26;;;;;;;8.13;3.28;;;23.70;47.90;;;;;;5021773;28;20030;-74
2021/07/03 11:19:53;;;;;;;;;;;23.60;44.90;;;;;;5025284;28;20120;-73
2021/07/03 11:22:24;;;;;;;3.67;2.90;;;23.60;45.10;;;;;;5020604;28;19924;-74
2021/07/03 11:24:58;;;;;;;5.60;3.00;;;23.50;45.40;;;;;;5020327;28;20425;-75
2021/07/03 11:27:38;;;;;;;9.80;3.60;;;23.60;45.60;;;;;;5021359;28;20109;-75
2021/07/03 11:30:16;;;;;;;8.48;3.53;;;23.60;44.70;;;;;;5021717;28;20029;-75
2021/07/03 11:32:57;;;;;;;4.28;2.92;;;23.50;44.50;;;;;;5035711;28;20524;-75
2021/07/03 11:35:25;;;;;;;3.67;2.65;;;23.50;45.70;;;;;;5021430;28;20022;-75
2021/07/03 11:37:51;;;;;;;6.28;3.00;;;23.60;46.10;;;;;;5020128;28;20038;-75
2021/07/03 11:40:19;;;;;;;4.25;3.25;;;23.60;44.70;;;;;;5023008;28;20021;-75
2021/07/03 11:42:47;;;;;;;4.03;2.95;;;23.60;45.20;;;;;;5031842;28;20029;-75
2021/07/03 11:45:19;;;;;;;4.57;2.72;;;23.50;44.80;;;;;;5027150;28;20105;-75
2021/07/03 11:47:45;;;;;;;4.38;3.30;;;23.50;44.60;;;;;;5027478;28;20030;-76
2021/07/03 11:50:15;;;;;;;4.28;3.13;;;23.60;44.30;;;;;;5025722;28;20026;-74
2021/07/03 11:52:48;;;;;;;4.57;2.72;;;23.50;45.00;;;;;;5023983;28;20040;-74
2021/07/03 11:55:17;;;;;;;4.35;2.97;;;23.60;44.40;;;;;;5031609;28;20056;-74
2021/07/03 11:57:46;;;;;;;5.22;3.15;;;23.60;45.10;;;;;;5031327;28;20045;-75
2021/07/03 12:00:14;;;;;;;3.25;2.95;;;23.60;46.20;;;;;;5027352;28;20044;-74
2021/07/03 12:02:42;;;;;;;5.18;2.90;;;23.50;43.50;;;;;;5027570;28;20519;-74
2021/07/03 12:05:08;;;;;;;4.63;3.30;;;23.40;45.40;;;;;;5031158;28;20033;-74
2021/07/03 12:07:36;;;;;;;3.38;2.95;;;23.40;46.20;;;;;;5025903;28;20124;-74
2021/07/03 12:10:11;;;;;;;3.45;2.97;;;23.60;46.60;;;;;;5027488;28;20637;-74
2021/07/03 12:12:38;;;;;;;3.92;2.92;;;23.60;46.10;;;;;;5025093;28;20025;-76
2021/07/03 12:15:11;;;;;;;3.90;2.85;;;23.50;45.90;;;;;;5026193;28;20022;-74
2021/07/03 12:17:52;;;;;;;51.40;34.58;;;23.50;47.30;;;;;;5024268;28;20672;-75
2021/07/03 12:20:22;;;;;;;9.25;5.22;;;23.50;50.10;;;;;;5027500;28;20140;-75
2021/07/03 12:23:03;;;;;;;13.30;7.15;;;23.50;47.60;;;;;;5029222;28;20032;-77
2021/07/03 12:25:30;;;;;;;106.78;79.32;;;23.70;50.00;;;;;;5025404;28;20090;-75
2021/07/03 12:28:02;;;;;;;12.15;8.57;;;23.60;49.10;;;;;;5022876;28;20116;-74
2021/07/03 12:30:30;;;;;;;3.92;3.13;;;23.60;44.90;;;;;;5016700;28;20022;-75
2021/07/03 12:33:06;;;;;;;5.15;4.03;;;23.60;38.60;;;;;;5027404;28;20629;-74
2021/07/03 12:35:34;;;;;;;25.00;15.13;;;23.60;45.30;;;;;;5030435;28;20021;-74
2021/07/03 12:38:00;;;;;;;177.30;105.15;;;23.70;48.80;;;;;;5044510;28;20040;-75
2021/07/03 12:40:33;;;;;;;35.80;22.70;;;23.60;47.90;;;;;;5028784;28;20432;-75
2021/07/03 12:43:00;;;;;;;13.90;8.38;;;23.70;45.00;;;;;;5029432;28;20033;-75
2021/07/03 12:45:26;;;;;;;5.05;4.13;;;23.50;47.20;;;;;;5029850;28;20045;-75
2021/07/03 12:48:09;;;;;;;11.13;7.70;;;23.50;46.40;;;;;;5024723;28;20033;-78